sensor_id;sensor_type;location;lat;lon;timestamp;P1;durP1;ratioP1;P2;durP2;ratioP2
49626;SDS011;35527;54.616;39.786;2023-09-07T00:02:48;6.72;;;2.50;;
49626;SDS011;35527;54.616;39.786;2023-09-07T00:05:53;7.55;;;3.47;;
49626;SDS011;35527;54.616;39.786;2023-09-07T00:08:56;8.80;;;4.45;;
49626;SDS011;35527;54.616;39.786;2023-09-07T00:12:00;8.45;;;3.95;;
49626;SDS011;35527;54.616;39.786;2023-09-07T00:15:02;8.23;;;4.03;;
49626;SDS011;35527;54.616;39.786;2023-09-07T00:18:05;8.55;;;3.80;;
49626;SDS011;35527;54.616;39.786;2023-09-07T00:21:10;7.53;;;2.90;;
49626;SDS011;35527;54.616;39.786;2023-09-07T00:24:17;7.43;;;3.20;;
49626;SDS011;35527;54.616;39.786;2023-09-07T00:27:20;7.15;;;3.00;;
49626;SDS011;35527;54.616;39.786;2023-09-07T00:30:23;3.97;;;1.63;;
49626;SDS011;35527;54.616;39.786;2023-09-07T00:33:26;6.43;;;2.95;;
49626;SDS011;35527;54.616;39.786;2023-09-07T00:36:32;6.72;;;3.53;;
49626;SDS011;35527;54.616;39.786;2023-09-07T00:39:35;6.90;;;3.35;;
49626;SDS011;35527;54.616;39.786;2023-09-07T00:42:39;6.63;;;2.78;;
49626;SDS011;35527;54.616;39.786;2023-09-07T00:45:43;5.50;;;2.03;;
49626;SDS011;35527;54.616;39.786;2023-09-07T00:48:49;5.60;;;2.10;;
49626;SDS011;35527;54.616;39.786;2023-09-07T00:51:52;6.07;;;2.05;;
49626;SDS011;35527;54.616;39.786;2023-09-07T00:54:56;6.13;;;2.05;;
49626;SDS011;35527;54.616;39.786;2023-09-07T00:57:59;5.50;;;2.30;;
49626;SDS011;35527;54.616;39.786;2023-09-07T01:01:04;6.45;;;2.78;;
49626;SDS011;35527;54.616;39.786;2023-09-07T01:04:07;6.38;;;2.45;;
49626;SDS011;35527;54.616;39.786;2023-09-07T01:07:14;13.10;;;7.25;;
49626;SDS011;35527;54.616;39.786;2023-09-07T01:10:31;19.55;;;10.15;;
49626;SDS011;35527;54.616;39.786;2023-09-07T01:13:36;14.83;;;5.47;;
49626;SDS011;35527;54.616;39.786;2023-09-07T01:16:39;16.98;;;9.57;;
49626;SDS011;35527;54.616;39.786;2023-09-07T01:19:44;17.65;;;9.73;;
49626;SDS011;35527;54.616;39.786;2023-09-07T01:22:49;16.73;;;9.10;;
49626;SDS011;35527;54.616;39.786;2023-09-07T01:25:55;14.18;;;8.20;;
49626;SDS011;35527;54.616;39.786;2023-09-07T01:28:58;14.25;;;7.68;;
49626;SDS011;35527;54.616;39.786;2023-09-07T01:32:05;8.40;;;3.25;;
49626;SDS011;35527;54.616;39.786;2023-09-07T01:35:08;13.63;;;5.78;;
49626;SDS011;35527;54.616;39.786;2023-09-07T01:38:15;7.93;;;2.90;;
49626;SDS011;35527;54.616;39.786;2023-09-07T01:41:17;10.65;;;4.25;;
49626;SDS011;35527;54.616;39.786;2023-09-07T01:44:20;7.75;;;3.75;;
49626;SDS011;35527;54.616;39.786;2023-09-07T01:47:26;8.75;;;3.60;;
49626;SDS011;35527;54.616;39.786;2023-09-07T01:50:32;8.73;;;3.78;;
49626;SDS011;35527;54.616;39.786;2023-09-07T01:53:34;9.40;;;2.65;;
49626;SDS011;35527;54.616;39.786;2023-09-07T01:56:37;11.15;;;4.53;;
49626;SDS011;35527;54.616;39.786;2023-09-07T01:59:43;8.68;;;2.90;;
49626;SDS011;35527;54.616;39.786;2023-09-07T02:02:49;9.82;;;4.72;;
49626;SDS011;35527;54.616;39.786;2023-09-07T02:05:53;8.60;;;4.68;;
49626;SDS011;35527;54.616;39.786;2023-09-07T02:08:57;10.65;;;4.70;;
49626;SDS011;35527;54.616;39.786;2023-09-07T02:12:04;6.38;;;2.65;;
49626;SDS011;35527;54.616;39.786;2023-09-07T02:15:08;9.00;;;4.18;;
49626;SDS011;35527;54.616;39.786;2023-09-07T02:18:11;10.10;;;3.83;;
49626;SDS011;35527;54.616;39.786;2023-09-07T02:21:14;7.22;;;3.63;;
49626;SDS011;35527;54.616;39.786;2023-09-07T02:24:18;7.20;;;3.50;;
49626;SDS011;35527;54.616;39.786;2023-09-07T02:27:23;5.85;;;1.80;;
49626;SDS011;35527;54.616;39.786;2023-09-07T02:30:27;6.78;;;2.50;;
49626;SDS011;35527;54.616;39.786;2023-09-07T02:33:33;5.45;;;2.30;;
49626;SDS011;35527;54.616;39.786;2023-09-07T02:36:38;6.85;;;2.40;;
49626;SDS011;35527;54.616;39.786;2023-09-07T02:39:42;3.33;;;1.48;;
49626;SDS011;35527;54.616;39.786;2023-09-07T02:42:47;9.02;;;3.50;;
49626;SDS011;35527;54.616;39.786;2023-09-07T02:45:50;10.07;;;4.22;;
49626;SDS011;35527;54.616;39.786;2023-09-07T02:48:57;8.82;;;3.92;;
49626;SDS011;35527;54.616;39.786;2023-09-07T02:52:01;8.38;;;3.70;;
49626;SDS011;35527;54.616;39.786;2023-09-07T02:55:04;8.00;;;3.47;;
49626;SDS011;35527;54.616;39.786;2023-09-07T03:01:17;9.65;;;4.45;;
49626;SDS011;35527;54.616;39.786;2023-09-07T03:04:25;7.88;;;3.92;;
49626;SDS011;35527;54.616;39.786;2023-09-07T03:07:33;7.22;;;2.30;;
49626;SDS011;35527;54.616;39.786;2023-09-07T03:10:36;8.45;;;3.97;;
49626;SDS011;35527;54.616;39.786;2023-09-07T03:13:42;8.80;;;4.00;;
49626;SDS011;35527;54.616;39.786;2023-09-07T03:16:49;9.63;;;4.07;;
49626;SDS011;35527;54.616;39.786;2023-09-07T03:19:53;7.88;;;3.40;;
49626;SDS011;35527;54.616;39.786;2023-09-07T03:23:00;9.25;;;3.50;;
49626;SDS011;35527;54.616;39.786;2023-09-07T03:26:03;7.70;;;2.60;;
49626;SDS011;35527;54.616;39.786;2023-09-07T03:29:08;7.90;;;2.33;;
49626;SDS011;35527;54.616;39.786;2023-09-07T03:32:11;5.72;;;2.05;;
49626;SDS011;35527;54.616;39.786;2023-09-07T03:35:15;4.72;;;1.48;;
49626;SDS011;35527;54.616;39.786;2023-09-07T03:38:17;6.50;;;1.58;;
49626;SDS011;35527;54.616;39.786;2023-09-07T03:41:21;3.80;;;1.90;;
49626;SDS011;35527;54.616;39.786;2023-09-07T03:44:24;5.85;;;1.50;;
49626;SDS011;35527;54.616;39.786;2023-09-07T03:47:30;5.00;;;1.50;;
49626;SDS011;35527;54.616;39.786;2023-09-07T03:50:34;4.15;;;1.40;;
49626;SDS011;35527;54.616;39.786;2023-09-07T03:53:39;4.32;;;1.95;;
49626;SDS011;35527;54.616;39.786;2023-09-07T03:56:41;3.33;;;1.40;;
49626;SDS011;35527;54.616;39.786;2023-09-07T03:59:44;7.53;;;1.95;;
49626;SDS011;35527;54.616;39.786;2023-09-07T04:02:49;4.05;;;1.45;;
49626;SDS011;35527;54.616;39.786;2023-09-07T04:05:54;7.05;;;1.80;;
49626;SDS011;35527;54.616;39.786;2023-09-07T04:08:57;4.43;;;1.48;;
49626;SDS011;35527;54.616;39.786;2023-09-07T04:12:01;6.20;;;1.50;;
49626;SDS011;35527;54.616;39.786;2023-09-07T04:15:06;5.88;;;1.27;;
49626;SDS011;35527;54.616;39.786;2023-09-07T04:18:11;4.50;;;1.50;;
49626;SDS011;35527;54.616;39.786;2023-09-07T04:21:21;5.88;;;1.67;;
49626;SDS011;35527;54.616;39.786;2023-09-07T04:24:25;6.00;;;1.30;;
49626;SDS011;35527;54.616;39.786;2023-09-07T04:27:31;5.88;;;1.60;;
49626;SDS011;35527;54.616;39.786;2023-09-07T04:30:39;4.78;;;1.83;;
49626;SDS011;35527;54.616;39.786;2023-09-07T04:33:45;6.63;;;2.38;;
49626;SDS011;35527;54.616;39.786;2023-09-07T04:36:50;2.30;;;1.10;;
49626;SDS011;35527;54.616;39.786;2023-09-07T04:39:54;4.03;;;1.40;;
49626;SDS011;35527;54.616;39.786;2023-09-07T04:42:58;5.80;;;1.33;;
49626;SDS011;35527;54.616;39.786;2023-09-07T04:46:00;5.28;;;1.50;;
49626;SDS011;35527;54.616;39.786;2023-09-07T04:49:05;4.80;;;1.50;;
49626;SDS011;35527;54.616;39.786;2023-09-07T04:52:13;5.75;;;1.42;;
49626;SDS011;35527;54.616;39.786;2023-09-07T04:55:16;2.83;;;1.30;;
49626;SDS011;35527;54.616;39.786;2023-09-07T04:58:21;5.70;;;1.27;;
49626;SDS011;35527;54.616;39.786;2023-09-07T05:01:24;6.68;;;1.63;;
49626;SDS011;35527;54.616;39.786;2023-09-07T05:07:41;4.43;;;1.40;;
49626;SDS011;35527;54.616;39.786;2023-09-07T05:10:44;6.15;;;1.88;;
49626;SDS011;35527;54.616;39.786;2023-09-07T05:13:49;5.75;;;1.42;;
49626;SDS011;35527;54.616;39.786;2023-09-07T05:16:54;5.65;;;1.20;;
49626;SDS011;35527;54.616;39.786;2023-09-07T05:19:59;4.68;;;1.17;;
49626;SDS011;35527;54.616;39.786;2023-09-07T05:23:03;7.93;;;1.40;;
49626;SDS011;35527;54.616;39.786;2023-09-07T05:26:05;4.45;;;1.20;;
49626;SDS011;35527;54.616;39.786;2023-09-07T05:29:14;4.70;;;1.30;;
49626;SDS011;35527;54.616;39.786;2023-09-07T05:32:17;2.28;;;1.10;;
49626;SDS011;35527;54.616;39.786;2023-09-07T05:35:20;2.42;;;1.08;;
49626;SDS011;35527;54.616;39.786;2023-09-07T05:38:25;4.25;;;1.20;;
49626;SDS011;35527;54.616;39.786;2023-09-07T05:41:33;4.85;;;1.20;;
49626;SDS011;35527;54.616;39.786;2023-09-07T05:44:36;2.75;;;1.00;;
49626;SDS011;35527;54.616;39.786;2023-09-07T05:47:41;6.28;;;1.45;;
49626;SDS011;35527;54.616;39.786;2023-09-07T05:50:44;3.55;;;1.00;;
49626;SDS011;35527;54.616;39.786;2023-09-07T05:53:49;2.08;;;1.00;;
49626;SDS011;35527;54.616;39.786;2023-09-07T05:56:52;4.13;;;1.05;;
49626;SDS011;35527;54.616;39.786;2023-09-07T05:59:55;3.22;;;1.30;;
49626;SDS011;35527;54.616;39.786;2023-09-07T06:02:58;4.97;;;1.23;;
49626;SDS011;35527;54.616;39.786;2023-09-07T06:06:03;2.50;;;1.10;;
49626;SDS011;35527;54.616;39.786;2023-09-07T06:09:08;2.65;;;1.00;;
49626;SDS011;35527;54.616;39.786;2023-09-07T06:12:12;2.45;;;1.10;;
49626;SDS011;35527;54.616;39.786;2023-09-07T06:15:17;2.72;;;1.13;;
49626;SDS011;35527;54.616;39.786;2023-09-07T06:18:21;4.00;;;1.20;;
49626;SDS011;35527;54.616;39.786;2023-09-07T06:21:25;3.60;;;1.13;;
49626;SDS011;35527;54.616;39.786;2023-09-07T06:24:27;4.10;;;1.17;;
49626;SDS011;35527;54.616;39.786;2023-09-07T06:27:31;3.50;;;1.10;;
49626;SDS011;35527;54.616;39.786;2023-09-07T06:30:35;3.50;;;0.98;;
49626;SDS011;35527;54.616;39.786;2023-09-07T06:33:38;3.60;;;1.15;;
49626;SDS011;35527;54.616;39.786;2023-09-07T06:36:41;3.03;;;1.05;;
49626;SDS011;35527;54.616;39.786;2023-09-07T06:39:49;3.13;;;1.10;;
49626;SDS011;35527;54.616;39.786;2023-09-07T06:42:54;4.73;;;1.17;;
49626;SDS011;35527;54.616;39.786;2023-09-07T06:46:07;2.95;;;1.10;;
49626;SDS011;35527;54.616;39.786;2023-09-07T06:49:11;3.85;;;1.02;;
49626;SDS011;35527;54.616;39.786;2023-09-07T06:52:14;4.43;;;1.10;;
49626;SDS011;35527;54.616;39.786;2023-09-07T06:55:19;2.83;;;1.00;;
49626;SDS011;35527;54.616;39.786;2023-09-07T06:58:24;4.63;;;1.40;;
49626;SDS011;35527;54.616;39.786;2023-09-07T07:01:27;4.03;;;1.00;;
49626;SDS011;35527;54.616;39.786;2023-09-07T07:04:32;3.15;;;0.90;;
49626;SDS011;35527;54.616;39.786;2023-09-07T07:07:35;2.75;;;0.85;;
49626;SDS011;35527;54.616;39.786;2023-09-07T07:10:38;3.40;;;1.08;;
49626;SDS011;35527;54.616;39.786;2023-09-07T07:13:42;3.42;;;1.02;;
49626;SDS011;35527;54.616;39.786;2023-09-07T07:16:46;3.63;;;0.95;;
49626;SDS011;35527;54.616;39.786;2023-09-07T07:19:50;5.35;;;1.40;;
49626;SDS011;35527;54.616;39.786;2023-09-07T07:25:57;2.33;;;0.90;;
49626;SDS011;35527;54.616;39.786;2023-09-07T07:29:04;4.28;;;1.20;;
49626;SDS011;35527;54.616;39.786;2023-09-07T07:32:09;8.05;;;1.33;;
49626;SDS011;35527;54.616;39.786;2023-09-07T07:35:16;13.15;;;1.40;;
49626;SDS011;35527;54.616;39.786;2023-09-07T07:38:19;2.72;;;0.77;;
49626;SDS011;35527;54.616;39.786;2023-09-07T07:41:24;3.85;;;0.88;;
49626;SDS011;35527;54.616;39.786;2023-09-07T07:44:29;6.90;;;1.20;;
49626;SDS011;35527;54.616;39.786;2023-09-07T07:47:31;4.45;;;0.90;;
49626;SDS011;35527;54.616;39.786;2023-09-07T07:50:40;4.90;;;1.17;;
49626;SDS011;35527;54.616;39.786;2023-09-07T07:53:50;3.67;;;1.10;;
49626;SDS011;35527;54.616;39.786;2023-09-07T07:56:55;3.38;;;0.95;;
49626;SDS011;35527;54.616;39.786;2023-09-07T08:00:00;5.22;;;0.98;;
49626;SDS011;35527;54.616;39.786;2023-09-07T08:03:04;8.88;;;1.45;;
49626;SDS011;35527;54.616;39.786;2023-09-07T08:06:13;7.63;;;1.00;;
49626;SDS011;35527;54.616;39.786;2023-09-07T08:09:20;2.92;;;0.90;;
49626;SDS011;35527;54.616;39.786;2023-09-07T08:12:26;3.60;;;1.20;;
49626;SDS011;35527;54.616;39.786;2023-09-07T08:15:31;9.63;;;1.10;;
49626;SDS011;35527;54.616;39.786;2023-09-07T08:18:36;4.07;;;1.02;;
49626;SDS011;35527;54.616;39.786;2023-09-07T08:21:40;3.70;;;1.00;;
49626;SDS011;35527;54.616;39.786;2023-09-07T08:24:44;3.42;;;0.90;;
49626;SDS011;35527;54.616;39.786;2023-09-07T08:27:49;2.70;;;0.85;;
49626;SDS011;35527;54.616;39.786;2023-09-07T08:30:52;2.47;;;0.80;;
49626;SDS011;35527;54.616;39.786;2023-09-07T08:33:57;5.20;;;0.88;;
49626;SDS011;35527;54.616;39.786;2023-09-07T08:37:01;2.35;;;0.88;;
49626;SDS011;35527;54.616;39.786;2023-09-07T08:40:06;5.07;;;0.85;;
49626;SDS011;35527;54.616;39.786;2023-09-07T08:43:11;4.07;;;1.00;;
49626;SDS011;35527;54.616;39.786;2023-09-07T08:46:17;5.78;;;1.23;;
49626;SDS011;35527;54.616;39.786;2023-09-07T08:49:23;5.68;;;1.13;;
49626;SDS011;35527;54.616;39.786;2023-09-07T08:52:28;2.78;;;0.90;;
49626;SDS011;35527;54.616;39.786;2023-09-07T08:55:33;2.55;;;0.80;;
49626;SDS011;35527;54.616;39.786;2023-09-07T08:58:37;5.18;;;1.85;;
49626;SDS011;35527;54.616;39.786;2023-09-07T09:01:41;5.65;;;1.20;;
49626;SDS011;35527;54.616;39.786;2023-09-07T09:04:47;1.73;;;0.75;;
49626;SDS011;35527;54.616;39.786;2023-09-07T09:08:00;6.07;;;1.00;;
49626;SDS011;35527;54.616;39.786;2023-09-07T09:11:03;3.38;;;0.88;;
49626;SDS011;35527;54.616;39.786;2023-09-07T09:14:07;6.35;;;1.10;;
49626;SDS011;35527;54.616;39.786;2023-09-07T09:17:13;3.63;;;0.90;;
49626;SDS011;35527;54.616;39.786;2023-09-07T09:20:20;4.70;;;1.67;;
49626;SDS011;35527;54.616;39.786;2023-09-07T09:23:31;7.63;;;2.60;;
49626;SDS011;35527;54.616;39.786;2023-09-07T09:26:37;11.90;;;3.72;;
49626;SDS011;35527;54.616;39.786;2023-09-07T09:32:46;6.20;;;2.45;;
49626;SDS011;35527;54.616;39.786;2023-09-07T09:38:56;8.77;;;2.05;;
49626;SDS011;35527;54.616;39.786;2023-09-07T09:41:59;8.48;;;1.27;;
49626;SDS011;35527;54.616;39.786;2023-09-07T09:45:02;4.50;;;1.30;;
49626;SDS011;35527;54.616;39.786;2023-09-07T09:48:06;9.02;;;2.75;;
49626;SDS011;35527;54.616;39.786;2023-09-07T09:51:14;5.28;;;1.30;;
49626;SDS011;35527;54.616;39.786;2023-09-07T09:54:18;7.28;;;2.13;;
49626;SDS011;35527;54.616;39.786;2023-09-07T09:57:21;3.60;;;1.30;;
49626;SDS011;35527;54.616;39.786;2023-09-07T10:00:25;3.40;;;1.00;;
49626;SDS011;35527;54.616;39.786;2023-09-07T10:03:32;3.10;;;0.82;;
49626;SDS011;35527;54.616;39.786;2023-09-07T10:06:36;3.00;;;0.85;;
49626;SDS011;35527;54.616;39.786;2023-09-07T10:09:41;3.30;;;0.75;;
49626;SDS011;35527;54.616;39.786;2023-09-07T10:12:45;5.20;;;1.00;;
49626;SDS011;35527;54.616;39.786;2023-09-07T10:16:04;3.25;;;0.85;;
49626;SDS011;35527;54.616;39.786;2023-09-07T10:22:25;4.18;;;1.10;;
49626;SDS011;35527;54.616;39.786;2023-09-07T10:25:30;6.82;;;1.00;;
49626;SDS011;35527;54.616;39.786;2023-09-07T10:28:37;6.28;;;1.60;;
49626;SDS011;35527;54.616;39.786;2023-09-07T10:31:40;4.03;;;1.20;;
49626;SDS011;35527;54.616;39.786;2023-09-07T10:34:55;3.63;;;0.73;;
49626;SDS011;35527;54.616;39.786;2023-09-07T10:38:02;6.60;;;1.00;;
49626;SDS011;35527;54.616;39.786;2023-09-07T10:41:10;4.35;;;0.90;;
49626;SDS011;35527;54.616;39.786;2023-09-07T10:47:16;2.53;;;0.82;;
49626;SDS011;35527;54.616;39.786;2023-09-07T10:50:19;1.73;;;0.80;;
49626;SDS011;35527;54.616;39.786;2023-09-07T10:53:30;3.75;;;0.77;;
49626;SDS011;35527;54.616;39.786;2023-09-07T10:56:33;6.65;;;1.20;;
49626;SDS011;35527;54.616;39.786;2023-09-07T10:59:37;4.15;;;0.75;;
49626;SDS011;35527;54.616;39.786;2023-09-07T11:02:43;4.88;;;1.10;;
49626;SDS011;35527;54.616;39.786;2023-09-07T11:05:47;3.38;;;0.80;;
49626;SDS011;35527;54.616;39.786;2023-09-07T11:08:51;2.35;;;0.80;;
49626;SDS011;35527;54.616;39.786;2023-09-07T11:11:53;3.00;;;0.60;;
49626;SDS011;35527;54.616;39.786;2023-09-07T11:15:01;2.72;;;0.60;;
49626;SDS011;35527;54.616;39.786;2023-09-07T11:18:05;1.73;;;0.63;;
49626;SDS011;35527;54.616;39.786;2023-09-07T11:21:09;2.70;;;0.60;;
49626;SDS011;35527;54.616;39.786;2023-09-07T11:24:13;5.10;;;1.10;;
49626;SDS011;35527;54.616;39.786;2023-09-07T11:27:17;6.50;;;2.28;;
49626;SDS011;35527;54.616;39.786;2023-09-07T11:30:23;6.15;;;1.30;;
49626;SDS011;35527;54.616;39.786;2023-09-07T11:33:26;6.35;;;1.13;;
49626;SDS011;35527;54.616;39.786;2023-09-07T11:36:35;3.28;;;0.80;;
49626;SDS011;35527;54.616;39.786;2023-09-07T11:39:43;5.68;;;0.80;;
49626;SDS011;35527;54.616;39.786;2023-09-07T11:42:46;10.15;;;3.72;;
49626;SDS011;35527;54.616;39.786;2023-09-07T11:45:49;6.82;;;1.48;;
49626;SDS011;35527;54.616;39.786;2023-09-07T11:48:53;5.38;;;1.27;;
49626;SDS011;35527;54.616;39.786;2023-09-07T11:52:00;3.00;;;1.10;;
49626;SDS011;35527;54.616;39.786;2023-09-07T11:55:07;4.65;;;0.73;;
49626;SDS011;35527;54.616;39.786;2023-09-07T11:58:10;1.85;;;0.50;;
49626;SDS011;35527;54.616;39.786;2023-09-07T12:01:14;6.30;;;2.25;;
49626;SDS011;35527;54.616;39.786;2023-09-07T12:04:20;10.10;;;3.10;;
49626;SDS011;35527;54.616;39.786;2023-09-07T12:07:22;9.07;;;2.05;;
49626;SDS011;35527;54.616;39.786;2023-09-07T12:10:25;3.83;;;0.75;;
49626;SDS011;35527;54.616;39.786;2023-09-07T12:13:29;6.88;;;1.60;;
49626;SDS011;35527;54.616;39.786;2023-09-07T12:16:37;10.23;;;1.40;;
49626;SDS011;35527;54.616;39.786;2023-09-07T12:19:41;8.82;;;1.75;;
49626;SDS011;35527;54.616;39.786;2023-09-07T12:22:45;6.07;;;0.93;;
49626;SDS011;35527;54.616;39.786;2023-09-07T12:25:51;6.85;;;1.10;;
49626;SDS011;35527;54.616;39.786;2023-09-07T12:28:57;5.35;;;2.10;;
49626;SDS011;35527;54.616;39.786;2023-09-07T12:32:03;7.10;;;1.80;;
49626;SDS011;35527;54.616;39.786;2023-09-07T12:35:06;4.43;;;1.10;;
49626;SDS011;35527;54.616;39.786;2023-09-07T12:38:11;5.28;;;1.02;;
49626;SDS011;35527;54.616;39.786;2023-09-07T12:41:22;12.52;;;1.20;;
49626;SDS011;35527;54.616;39.786;2023-09-07T12:44:27;5.50;;;1.15;;
49626;SDS011;35527;54.616;39.786;2023-09-07T12:47:31;5.63;;;1.00;;
49626;SDS011;35527;54.616;39.786;2023-09-07T12:50:34;4.70;;;0.82;;
49626;SDS011;35527;54.616;39.786;2023-09-07T12:53:39;9.05;;;1.25;;
49626;SDS011;35527;54.616;39.786;2023-09-07T12:56:42;3.53;;;0.80;;
49626;SDS011;35527;54.616;39.786;2023-09-07T12:59:44;7.78;;;2.13;;
49626;SDS011;35527;54.616;39.786;2023-09-07T13:02:50;5.30;;;1.00;;
49626;SDS011;35527;54.616;39.786;2023-09-07T13:05:59;4.97;;;0.73;;
49626;SDS011;35527;54.616;39.786;2023-09-07T13:09:01;3.47;;;0.93;;
49626;SDS011;35527;54.616;39.786;2023-09-07T13:12:07;1.95;;;0.70;;
49626;SDS011;35527;54.616;39.786;2023-09-07T13:15:10;5.50;;;0.90;;
49626;SDS011;35527;54.616;39.786;2023-09-07T13:18:19;5.53;;;1.30;;
49626;SDS011;35527;54.616;39.786;2023-09-07T13:21:26;5.10;;;1.30;;
49626;SDS011;35527;54.616;39.786;2023-09-07T13:24:29;4.28;;;0.90;;
49626;SDS011;35527;54.616;39.786;2023-09-07T13:27:32;11.93;;;6.38;;
49626;SDS011;35527;54.616;39.786;2023-09-07T13:30:36;5.53;;;2.58;;
49626;SDS011;35527;54.616;39.786;2023-09-07T13:33:40;6.35;;;1.05;;
49626;SDS011;35527;54.616;39.786;2023-09-07T13:36:44;4.13;;;1.00;;
49626;SDS011;35527;54.616;39.786;2023-09-07T13:39:49;2.95;;;0.68;;
49626;SDS011;35527;54.616;39.786;2023-09-07T13:42:56;5.63;;;0.90;;
49626;SDS011;35527;54.616;39.786;2023-09-07T13:46:04;4.25;;;0.80;;
49626;SDS011;35527;54.616;39.786;2023-09-07T13:49:07;9.15;;;1.33;;
49626;SDS011;35527;54.616;39.786;2023-09-07T13:52:12;6.97;;;1.00;;
49626;SDS011;35527;54.616;39.786;2023-09-07T13:55:16;4.53;;;0.88;;
49626;SDS011;35527;54.616;39.786;2023-09-07T13:58:20;5.53;;;1.02;;
49626;SDS011;35527;54.616;39.786;2023-09-07T14:01:23;3.35;;;0.77;;
49626;SDS011;35527;54.616;39.786;2023-09-07T14:07:34;3.25;;;0.73;;
49626;SDS011;35527;54.616;39.786;2023-09-07T14:10:36;2.40;;;0.75;;
49626;SDS011;35527;54.616;39.786;2023-09-07T14:13:39;1.98;;;0.70;;
49626;SDS011;35527;54.616;39.786;2023-09-07T14:16:41;2.60;;;0.73;;
49626;SDS011;35527;54.616;39.786;2023-09-07T14:19:47;3.35;;;0.80;;
49626;SDS011;35527;54.616;39.786;2023-09-07T14:22:50;4.07;;;0.77;;
49626;SDS011;35527;54.616;39.786;2023-09-07T14:25:53;2.20;;;0.80;;
49626;SDS011;35527;54.616;39.786;2023-09-07T14:28:58;2.47;;;1.10;;
49626;SDS011;35527;54.616;39.786;2023-09-07T14:32:03;5.70;;;1.13;;
49626;SDS011;35527;54.616;39.786;2023-09-07T14:35:09;2.97;;;1.10;;
49626;SDS011;35527;54.616;39.786;2023-09-07T14:38:13;2.20;;;0.90;;
49626;SDS011;35527;54.616;39.786;2023-09-07T14:41:15;4.45;;;1.05;;
49626;SDS011;35527;54.616;39.786;2023-09-07T14:44:22;5.05;;;1.40;;
49626;SDS011;35527;54.616;39.786;2023-09-07T14:47:25;6.05;;;1.80;;
49626;SDS011;35527;54.616;39.786;2023-09-07T14:50:28;5.47;;;1.50;;
49626;SDS011;35527;54.616;39.786;2023-09-07T14:53:32;2.33;;;1.00;;
49626;SDS011;35527;54.616;39.786;2023-09-07T14:56:38;4.17;;;1.33;;
49626;SDS011;35527;54.616;39.786;2023-09-07T14:59:41;6.03;;;1.20;;
49626;SDS011;35527;54.616;39.786;2023-09-07T15:02:47;4.53;;;1.00;;
49626;SDS011;35527;54.616;39.786;2023-09-07T15:05:51;3.08;;;1.00;;
49626;SDS011;35527;54.616;39.786;2023-09-07T15:08:57;3.05;;;0.85;;
49626;SDS011;35527;54.616;39.786;2023-09-07T15:11:59;7.47;;;1.20;;
49626;SDS011;35527;54.616;39.786;2023-09-07T15:15:02;3.28;;;0.60;;
49626;SDS011;35527;54.616;39.786;2023-09-07T15:18:05;4.10;;;0.90;;
49626;SDS011;35527;54.616;39.786;2023-09-07T15:24:20;5.35;;;0.93;;
49626;SDS011;35527;54.616;39.786;2023-09-07T15:27:22;4.25;;;0.90;;
49626;SDS011;35527;54.616;39.786;2023-09-07T15:30:28;4.22;;;0.90;;
49626;SDS011;35527;54.616;39.786;2023-09-07T15:33:35;3.80;;;1.13;;
49626;SDS011;35527;54.616;39.786;2023-09-07T15:36:40;3.10;;;0.85;;
49626;SDS011;35527;54.616;39.786;2023-09-07T15:39:44;3.33;;;0.90;;
49626;SDS011;35527;54.616;39.786;2023-09-07T15:42:48;2.90;;;0.90;;
49626;SDS011;35527;54.616;39.786;2023-09-07T15:45:53;4.27;;;1.10;;
49626;SDS011;35527;54.616;39.786;2023-09-07T15:48:57;5.38;;;1.00;;
49626;SDS011;35527;54.616;39.786;2023-09-07T15:52:01;3.28;;;0.80;;
49626;SDS011;35527;54.616;39.786;2023-09-07T15:55:09;5.32;;;1.25;;
49626;SDS011;35527;54.616;39.786;2023-09-07T15:58:13;2.25;;;0.95;;
49626;SDS011;35527;54.616;39.786;2023-09-07T16:01:19;2.92;;;0.85;;
49626;SDS011;35527;54.616;39.786;2023-09-07T16:04:23;3.83;;;1.00;;
49626;SDS011;35527;54.616;39.786;2023-09-07T16:07:29;6.35;;;1.00;;
49626;SDS011;35527;54.616;39.786;2023-09-07T16:10:34;2.95;;;1.15;;
49626;SDS011;35527;54.616;39.786;2023-09-07T16:13:40;4.68;;;1.02;;
49626;SDS011;35527;54.616;39.786;2023-09-07T16:16:43;3.78;;;0.90;;
49626;SDS011;35527;54.616;39.786;2023-09-07T16:19:46;1.75;;;0.90;;
49626;SDS011;35527;54.616;39.786;2023-09-07T16:22:53;1.92;;;1.00;;
49626;SDS011;35527;54.616;39.786;2023-09-07T16:25:55;4.30;;;1.00;;
49626;SDS011;35527;54.616;39.786;2023-09-07T16:29:00;4.43;;;1.10;;
49626;SDS011;35527;54.616;39.786;2023-09-07T16:32:04;2.70;;;0.90;;
49626;SDS011;35527;54.616;39.786;2023-09-07T16:35:09;2.80;;;1.10;;
49626;SDS011;35527;54.616;39.786;2023-09-07T16:38:13;3.67;;;1.20;;
49626;SDS011;35527;54.616;39.786;2023-09-07T16:41:18;5.68;;;1.10;;
49626;SDS011;35527;54.616;39.786;2023-09-07T16:44:24;3.05;;;1.00;;
49626;SDS011;35527;54.616;39.786;2023-09-07T16:47:31;4.90;;;1.00;;
49626;SDS011;35527;54.616;39.786;2023-09-07T16:50:35;5.65;;;0.90;;
49626;SDS011;35527;54.616;39.786;2023-09-07T16:53:38;3.47;;;0.90;;
49626;SDS011;35527;54.616;39.786;2023-09-07T16:56:41;2.30;;;0.90;;
49626;SDS011;35527;54.616;39.786;2023-09-07T16:59:45;4.22;;;0.85;;
49626;SDS011;35527;54.616;39.786;2023-09-07T17:02:57;3.53;;;0.73;;
49626;SDS011;35527;54.616;39.786;2023-09-07T17:05:59;3.28;;;0.90;;
49626;SDS011;35527;54.616;39.786;2023-09-07T17:09:03;2.17;;;0.90;;
49626;SDS011;35527;54.616;39.786;2023-09-07T17:12:08;3.75;;;1.33;;
49626;SDS011;35527;54.616;39.786;2023-09-07T17:15:13;3.20;;;1.00;;
49626;SDS011;35527;54.616;39.786;2023-09-07T17:18:17;1.48;;;0.70;;
49626;SDS011;35527;54.616;39.786;2023-09-07T17:21:20;1.95;;;0.80;;
49626;SDS011;35527;54.616;39.786;2023-09-07T17:24:25;2.65;;;0.98;;
49626;SDS011;35527;54.616;39.786;2023-09-07T17:27:32;5.80;;;1.10;;
49626;SDS011;35527;54.616;39.786;2023-09-07T17:30:35;2.85;;;0.90;;
49626;SDS011;35527;54.616;39.786;2023-09-07T17:33:39;3.47;;;1.20;;
49626;SDS011;35527;54.616;39.786;2023-09-07T17:36:43;3.05;;;1.15;;
49626;SDS011;35527;54.616;39.786;2023-09-07T17:39:47;3.55;;;1.50;;
49626;SDS011;35527;54.616;39.786;2023-09-07T17:42:52;5.88;;;1.30;;
49626;SDS011;35527;54.616;39.786;2023-09-07T17:45:59;3.65;;;1.35;;
49626;SDS011;35527;54.616;39.786;2023-09-07T17:49:04;3.95;;;1.30;;
49626;SDS011;35527;54.616;39.786;2023-09-07T17:52:06;5.30;;;1.38;;
49626;SDS011;35527;54.616;39.786;2023-09-07T17:55:09;3.25;;;1.13;;
49626;SDS011;35527;54.616;39.786;2023-09-07T17:58:12;5.40;;;1.15;;
49626;SDS011;35527;54.616;39.786;2023-09-07T18:01:17;2.92;;;1.17;;
49626;SDS011;35527;54.616;39.786;2023-09-07T18:04:20;1.52;;;0.88;;
49626;SDS011;35527;54.616;39.786;2023-09-07T18:07:23;4.75;;;1.38;;
49626;SDS011;35527;54.616;39.786;2023-09-07T18:10:29;3.78;;;1.10;;
49626;SDS011;35527;54.616;39.786;2023-09-07T18:13:34;2.92;;;1.20;;
49626;SDS011;35527;54.616;39.786;2023-09-07T18:16:40;4.93;;;1.45;;
49626;SDS011;35527;54.616;39.786;2023-09-07T18:19:44;4.13;;;1.15;;
49626;SDS011;35527;54.616;39.786;2023-09-07T18:22:48;2.42;;;1.10;;
49626;SDS011;35527;54.616;39.786;2023-09-07T18:25:51;2.42;;;1.00;;
49626;SDS011;35527;54.616;39.786;2023-09-07T18:28:54;3.17;;;1.00;;
49626;SDS011;35527;54.616;39.786;2023-09-07T18:31:57;3.20;;;1.02;;
49626;SDS011;35527;54.616;39.786;2023-09-07T18:35:02;4.00;;;1.40;;
49626;SDS011;35527;54.616;39.786;2023-09-07T18:38:09;2.58;;;1.25;;
49626;SDS011;35527;54.616;39.786;2023-09-07T18:41:13;3.97;;;1.30;;
49626;SDS011;35527;54.616;39.786;2023-09-07T18:44:18;4.03;;;1.40;;